sensor_id;sensor_type;location;lat;lon;timestamp;P1;durP1;ratioP1;P2;durP2;ratioP2
24030;SDS011;12240;51.142;22.486;2023-06-22T00:00:31;12.95;;;8.27;;
24030;SDS011;12240;51.142;22.486;2023-06-22T00:03:00;12.20;;;8.75;;
24030;SDS011;12240;51.142;22.486;2023-06-22T00:05:28;11.05;;;7.85;;
24030;SDS011;12240;51.142;22.486;2023-06-22T00:07:56;17.35;;;8.52;;
24030;SDS011;12240;51.142;22.486;2023-06-22T00:10:24;19.23;;;8.60;;
24030;SDS011;12240;51.142;22.486;2023-06-22T00:12:53;13.95;;;8.90;;
24030;SDS011;12240;51.142;22.486;2023-06-22T00:15:21;13.68;;;7.95;;
24030;SDS011;12240;51.142;22.486;2023-06-22T00:17:49;12.43;;;7.90;;
24030;SDS011;12240;51.142;22.486;2023-06-22T00:20:18;19.27;;;8.90;;
24030;SDS011;12240;51.142;22.486;2023-06-22T00:22:46;13.32;;;8.57;;
24030;SDS011;12240;51.142;22.486;2023-06-22T00:25:15;14.98;;;8.77;;
24030;SDS011;12240;51.142;22.486;2023-06-22T00:27:43;17.17;;;9.43;;
24030;SDS011;12240;51.142;22.486;2023-06-22T00:30:11;13.13;;;8.73;;
24030;SDS011;12240;51.142;22.486;2023-06-22T00:32:40;15.65;;;9.13;;
24030;SDS011;12240;51.142;22.486;2023-06-22T00:35:08;16.40;;;9.45;;
24030;SDS011;12240;51.142;22.486;2023-06-22T00:37:37;14.25;;;8.82;;
24030;SDS011;12240;51.142;22.486;2023-06-22T00:40:11;14.27;;;9.27;;
24030;SDS011;12240;51.142;22.486;2023-06-22T00:42:40;18.17;;;8.70;;
24030;SDS011;12240;51.142;22.486;2023-06-22T00:45:08;12.70;;;9.05;;
24030;SDS011;12240;51.142;22.486;2023-06-22T00:47:37;14.60;;;9.10;;
24030;SDS011;12240;51.142;22.486;2023-06-22T00:50:06;17.05;;;8.63;;
24030;SDS011;12240;51.142;22.486;2023-06-22T00:52:37;14.55;;;8.52;;
24030;SDS011;12240;51.142;22.486;2023-06-22T00:55:10;14.73;;;8.48;;
24030;SDS011;12240;51.142;22.486;2023-06-22T00:57:38;13.52;;;8.30;;
24030;SDS011;12240;51.142;22.486;2023-06-22T01:00:07;16.10;;;9.23;;
24030;SDS011;12240;51.142;22.486;2023-06-22T01:02:39;15.73;;;9.23;;
24030;SDS011;12240;51.142;22.486;2023-06-22T01:05:08;16.23;;;8.85;;
24030;SDS011;12240;51.142;22.486;2023-06-22T01:13:16;15.20;;;9.10;;
24030;SDS011;12240;51.142;22.486;2023-06-22T01:15:57;18.98;;;8.77;;
24030;SDS011;12240;51.142;22.486;2023-06-22T01:18:36;18.65;;;8.98;;
24030;SDS011;12240;51.142;22.486;2023-06-22T01:21:09;18.17;;;9.40;;
24030;SDS011;12240;51.142;22.486;2023-06-22T01:24:01;14.20;;;9.15;;
24030;SDS011;12240;51.142;22.486;2023-06-22T01:26:57;14.80;;;8.30;;
24030;SDS011;12240;51.142;22.486;2023-06-22T01:29:33;14.40;;;9.10;;
24030;SDS011;12240;51.142;22.486;2023-06-22T01:32:05;14.77;;;8.70;;
24030;SDS011;12240;51.142;22.486;2023-06-22T01:34:36;13.93;;;9.27;;
24030;SDS011;12240;51.142;22.486;2023-06-22T01:37:07;18.58;;;9.32;;
24030;SDS011;12240;51.142;22.486;2023-06-22T01:39:36;14.35;;;8.95;;
24030;SDS011;12240;51.142;22.486;2023-06-22T01:42:04;14.55;;;9.57;;
24030;SDS011;12240;51.142;22.486;2023-06-22T01:44:33;14.48;;;8.77;;
24030;SDS011;12240;51.142;22.486;2023-06-22T01:47:02;16.67;;;9.85;;
24030;SDS011;12240;51.142;22.486;2023-06-22T01:49:30;13.57;;;9.98;;
24030;SDS011;12240;51.142;22.486;2023-06-22T01:51:59;16.48;;;9.25;;
24030;SDS011;12240;51.142;22.486;2023-06-22T01:54:28;17.83;;;9.77;;
24030;SDS011;12240;51.142;22.486;2023-06-22T01:56:56;14.48;;;9.38;;
24030;SDS011;12240;51.142;22.486;2023-06-22T02:02:09;14.77;;;9.65;;
24030;SDS011;12240;51.142;22.486;2023-06-22T02:04:46;14.10;;;9.18;;
24030;SDS011;12240;51.142;22.486;2023-06-22T02:07:22;16.67;;;9.37;;
24030;SDS011;12240;51.142;22.486;2023-06-22T02:09:54;17.40;;;9.85;;
24030;SDS011;12240;51.142;22.486;2023-06-22T02:12:25;21.33;;;9.82;;
24030;SDS011;12240;51.142;22.486;2023-06-22T02:14:55;17.77;;;9.43;;
24030;SDS011;12240;51.142;22.486;2023-06-22T02:17:24;16.50;;;9.38;;
24030;SDS011;12240;51.142;22.486;2023-06-22T02:19:53;17.10;;;9.55;;
24030;SDS011;12240;51.142;22.486;2023-06-22T02:22:22;20.92;;;10.13;;
24030;SDS011;12240;51.142;22.486;2023-06-22T02:24:51;16.75;;;9.65;;
24030;SDS011;12240;51.142;22.486;2023-06-22T02:27:19;17.17;;;9.50;;
24030;SDS011;12240;51.142;22.486;2023-06-22T02:29:48;15.65;;;9.90;;
24030;SDS011;12240;51.142;22.486;2023-06-22T02:32:16;18.83;;;10.35;;
24030;SDS011;12240;51.142;22.486;2023-06-22T02:34:46;17.08;;;10.45;;
24030;SDS011;12240;51.142;22.486;2023-06-22T02:37:15;16.80;;;10.40;;
24030;SDS011;12240;51.142;22.486;2023-06-22T02:39:44;17.20;;;9.95;;
24030;SDS011;12240;51.142;22.486;2023-06-22T02:42:12;19.00;;;9.82;;
24030;SDS011;12240;51.142;22.486;2023-06-22T02:44:42;18.70;;;10.05;;
24030;SDS011;12240;51.142;22.486;2023-06-22T02:47:10;14.32;;;9.45;;
24030;SDS011;12240;51.142;22.486;2023-06-22T02:49:38;21.42;;;10.30;;
24030;SDS011;12240;51.142;22.486;2023-06-22T02:52:06;20.17;;;10.32;;
24030;SDS011;12240;51.142;22.486;2023-06-22T02:54:34;24.02;;;10.38;;
24030;SDS011;12240;51.142;22.486;2023-06-22T02:57:02;17.38;;;9.77;;
24030;SDS011;12240;51.142;22.486;2023-06-22T02:59:32;17.90;;;10.10;;
24030;SDS011;12240;51.142;22.486;2023-06-22T03:02:08;18.95;;;10.98;;
24030;SDS011;12240;51.142;22.486;2023-06-22T03:04:36;17.98;;;10.48;;
24030;SDS011;12240;51.142;22.486;2023-06-22T03:07:04;22.98;;;9.88;;
24030;SDS011;12240;51.142;22.486;2023-06-22T03:09:34;16.70;;;9.73;;
24030;SDS011;12240;51.142;22.486;2023-06-22T03:12:02;21.00;;;9.80;;
24030;SDS011;12240;51.142;22.486;2023-06-22T03:14:49;21.73;;;10.18;;
24030;SDS011;12240;51.142;22.486;2023-06-22T03:17:17;16.88;;;10.18;;
24030;SDS011;12240;51.142;22.486;2023-06-22T03:19:45;19.45;;;10.73;;
24030;SDS011;12240;51.142;22.486;2023-06-22T03:22:13;22.67;;;10.27;;
24030;SDS011;12240;51.142;22.486;2023-06-22T03:24:42;22.35;;;11.73;;
24030;SDS011;12240;51.142;22.486;2023-06-22T03:27:10;24.77;;;12.80;;
24030;SDS011;12240;51.142;22.486;2023-06-22T03:29:39;19.20;;;10.52;;
24030;SDS011;12240;51.142;22.486;2023-06-22T03:32:08;19.23;;;10.30;;
24030;SDS011;12240;51.142;22.486;2023-06-22T03:34:36;18.08;;;9.98;;
24030;SDS011;12240;51.142;22.486;2023-06-22T03:37:04;22.65;;;10.70;;
24030;SDS011;12240;51.142;22.486;2023-06-22T03:39:32;24.63;;;9.70;;
24030;SDS011;12240;51.142;22.486;2023-06-22T03:42:00;18.00;;;9.95;;
24030;SDS011;12240;51.142;22.486;2023-06-22T03:44:28;17.67;;;10.38;;
24030;SDS011;12240;51.142;22.486;2023-06-22T03:46:58;27.13;;;10.98;;
24030;SDS011;12240;51.142;22.486;2023-06-22T03:49:26;18.63;;;10.57;;
24030;SDS011;12240;51.142;22.486;2023-06-22T03:51:53;17.38;;;10.00;;
24030;SDS011;12240;51.142;22.486;2023-06-22T03:54:22;19.35;;;9.73;;
24030;SDS011;12240;51.142;22.486;2023-06-22T03:56:50;23.17;;;10.43;;
24030;SDS011;12240;51.142;22.486;2023-06-22T03:59:18;19.23;;;10.68;;
24030;SDS011;12240;51.142;22.486;2023-06-22T04:01:46;19.17;;;10.48;;
24030;SDS011;12240;51.142;22.486;2023-06-22T04:04:14;16.92;;;10.15;;
24030;SDS011;12240;51.142;22.486;2023-06-22T04:06:42;19.40;;;9.52;;
24030;SDS011;12240;51.142;22.486;2023-06-22T04:09:10;21.13;;;11.23;;
24030;SDS011;12240;51.142;22.486;2023-06-22T04:11:38;18.00;;;11.07;;
24030;SDS011;12240;51.142;22.486;2023-06-22T04:14:06;22.15;;;10.68;;
24030;SDS011;12240;51.142;22.486;2023-06-22T04:16:34;20.30;;;10.57;;
24030;SDS011;12240;51.142;22.486;2023-06-22T04:19:03;20.13;;;11.45;;
24030;SDS011;12240;51.142;22.486;2023-06-22T04:21:31;18.95;;;11.65;;
24030;SDS011;12240;51.142;22.486;2023-06-22T04:23:59;21.88;;;11.30;;
24030;SDS011;12240;51.142;22.486;2023-06-22T04:26:27;23.38;;;11.80;;
24030;SDS011;12240;51.142;22.486;2023-06-22T04:28:55;24.73;;;11.68;;
24030;SDS011;12240;51.142;22.486;2023-06-22T04:31:23;19.27;;;11.77;;
24030;SDS011;12240;51.142;22.486;2023-06-22T04:33:54;21.13;;;11.10;;
24030;SDS011;12240;51.142;22.486;2023-06-22T04:36:22;27.75;;;11.88;;
24030;SDS011;12240;51.142;22.486;2023-06-22T04:38:52;21.63;;;12.13;;
24030;SDS011;12240;51.142;22.486;2023-06-22T04:41:20;23.00;;;11.35;;
24030;SDS011;12240;51.142;22.486;2023-06-22T04:46:21;21.80;;;12.45;;
24030;SDS011;12240;51.142;22.486;2023-06-22T04:48:49;19.27;;;11.80;;
24030;SDS011;12240;51.142;22.486;2023-06-22T04:51:18;21.88;;;12.35;;
24030;SDS011;12240;51.142;22.486;2023-06-22T04:53:50;22.83;;;13.32;;
24030;SDS011;12240;51.142;22.486;2023-06-22T04:56:19;20.25;;;12.55;;
24030;SDS011;12240;51.142;22.486;2023-06-22T04:58:48;24.45;;;12.77;;
24030;SDS011;12240;51.142;22.486;2023-06-22T05:01:18;20.58;;;12.98;;
24030;SDS011;12240;51.142;22.486;2023-06-22T05:03:49;25.13;;;13.32;;
24030;SDS011;12240;51.142;22.486;2023-06-22T05:06:17;22.05;;;12.98;;
24030;SDS011;12240;51.142;22.486;2023-06-22T05:08:45;25.70;;;13.27;;
24030;SDS011;12240;51.142;22.486;2023-06-22T05:11:14;22.67;;;13.27;;
24030;SDS011;12240;51.142;22.486;2023-06-22T05:13:43;22.83;;;13.38;;
24030;SDS011;12240;51.142;22.486;2023-06-22T05:16:12;24.85;;;12.57;;
24030;SDS011;12240;51.142;22.486;2023-06-22T05:18:40;22.00;;;12.25;;
24030;SDS011;12240;51.142;22.486;2023-06-22T05:21:09;18.58;;;12.30;;
24030;SDS011;12240;51.142;22.486;2023-06-22T05:23:37;21.33;;;12.63;;
24030;SDS011;12240;51.142;22.486;2023-06-22T05:26:05;20.67;;;11.98;;
24030;SDS011;12240;51.142;22.486;2023-06-22T05:31:04;24.83;;;12.55;;
24030;SDS011;12240;51.142;22.486;2023-06-22T05:33:32;23.13;;;12.52;;
24030;SDS011;12240;51.142;22.486;2023-06-22T05:36:00;20.55;;;12.30;;
24030;SDS011;12240;51.142;22.486;2023-06-22T05:38:29;21.38;;;12.02;;
24030;SDS011;12240;51.142;22.486;2023-06-22T05:40:57;19.67;;;11.55;;
24030;SDS011;12240;51.142;22.486;2023-06-22T05:43:25;22.92;;;12.50;;
24030;SDS011;12240;51.142;22.486;2023-06-22T05:45:53;18.95;;;12.02;;
24030;SDS011;12240;51.142;22.486;2023-06-22T05:48:22;16.48;;;11.50;;
24030;SDS011;12240;51.142;22.486;2023-06-22T05:50:50;19.17;;;12.30;;
24030;SDS011;12240;51.142;22.486;2023-06-22T05:53:18;24.27;;;12.43;;
24030;SDS011;12240;51.142;22.486;2023-06-22T05:55:47;18.15;;;11.95;;
24030;SDS011;12240;51.142;22.486;2023-06-22T05:58:16;19.92;;;11.52;;
24030;SDS011;12240;51.142;22.486;2023-06-22T06:00:44;17.77;;;12.07;;
24030;SDS011;12240;51.142;22.486;2023-06-22T06:03:13;17.00;;;11.95;;
24030;SDS011;12240;51.142;22.486;2023-06-22T06:05:44;16.60;;;11.98;;
24030;SDS011;12240;51.142;22.486;2023-06-22T06:08:12;17.58;;;11.75;;
24030;SDS011;12240;51.142;22.486;2023-06-22T06:10:40;17.38;;;11.98;;
24030;SDS011;12240;51.142;22.486;2023-06-22T06:13:09;18.05;;;11.98;;
24030;SDS011;12240;51.142;22.486;2023-06-22T06:15:37;15.93;;;11.02;;
24030;SDS011;12240;51.142;22.486;2023-06-22T06:18:06;17.27;;;11.40;;
24030;SDS011;12240;51.142;22.486;2023-06-22T06:20:34;16.35;;;11.32;;
24030;SDS011;12240;51.142;22.486;2023-06-22T06:23:03;17.95;;;11.02;;
24030;SDS011;12240;51.142;22.486;2023-06-22T06:25:31;16.50;;;11.25;;
24030;SDS011;12240;51.142;22.486;2023-06-22T06:27:59;14.35;;;10.32;;
24030;SDS011;12240;51.142;22.486;2023-06-22T06:30:29;17.27;;;10.07;;
24030;SDS011;12240;51.142;22.486;2023-06-22T06:32:58;13.32;;;9.77;;
24030;SDS011;12240;51.142;22.486;2023-06-22T06:35:27;14.50;;;9.95;;
24030;SDS011;12240;51.142;22.486;2023-06-22T06:37:55;14.52;;;10.30;;
24030;SDS011;12240;51.142;22.486;2023-06-22T06:40:24;12.68;;;9.20;;
24030;SDS011;12240;51.142;22.486;2023-06-22T06:42:52;14.05;;;9.65;;
24030;SDS011;12240;51.142;22.486;2023-06-22T06:45:22;23.27;;;10.10;;
24030;SDS011;12240;51.142;22.486;2023-06-22T06:47:52;13.50;;;9.88;;
24030;SDS011;12240;51.142;22.486;2023-06-22T06:50:21;18.25;;;10.80;;
24030;SDS011;12240;51.142;22.486;2023-06-22T06:52:49;15.63;;;10.73;;
24030;SDS011;12240;51.142;22.486;2023-06-22T06:55:19;14.43;;;10.70;;
24030;SDS011;12240;51.142;22.486;2023-06-22T06:57:48;12.52;;;10.23;;
24030;SDS011;12240;51.142;22.486;2023-06-22T07:00:17;15.27;;;10.82;;
24030;SDS011;12240;51.142;22.486;2023-06-22T07:02:46;12.85;;;10.15;;
24030;SDS011;12240;51.142;22.486;2023-06-22T07:05:15;15.80;;;10.30;;
24030;SDS011;12240;51.142;22.486;2023-06-22T07:07:44;14.98;;;10.82;;
24030;SDS011;12240;51.142;22.486;2023-06-22T07:10:12;12.02;;;9.85;;
24030;SDS011;12240;51.142;22.486;2023-06-22T07:12:40;14.15;;;10.13;;
24030;SDS011;12240;51.142;22.486;2023-06-22T07:15:08;15.07;;;9.57;;
24030;SDS011;12240;51.142;22.486;2023-06-22T07:17:38;14.52;;;10.48;;
24030;SDS011;12240;51.142;22.486;2023-06-22T07:20:08;18.50;;;11.70;;
24030;SDS011;12240;51.142;22.486;2023-06-22T07:22:40;14.45;;;11.80;;
24030;SDS011;12240;51.142;22.486;2023-06-22T07:25:11;14.63;;;10.98;;
24030;SDS011;12240;51.142;22.486;2023-06-22T07:27:45;12.85;;;10.77;;
24030;SDS011;12240;51.142;22.486;2023-06-22T07:30:24;18.07;;;13.10;;
24030;SDS011;12240;51.142;22.486;2023-06-22T07:32:53;18.23;;;11.45;;
24030;SDS011;12240;51.142;22.486;2023-06-22T07:35:21;14.63;;;11.10;;
24030;SDS011;12240;51.142;22.486;2023-06-22T07:37:49;14.60;;;11.38;;
24030;SDS011;12240;51.142;22.486;2023-06-22T07:40:17;15.02;;;10.85;;
24030;SDS011;12240;51.142;22.486;2023-06-22T07:42:46;16.55;;;11.45;;
24030;SDS011;12240;51.142;22.486;2023-06-22T07:45:18;12.32;;;11.02;;
24030;SDS011;12240;51.142;22.486;2023-06-22T07:47:47;14.65;;;11.57;;
24030;SDS011;12240;51.142;22.486;2023-06-22T07:50:15;18.80;;;12.48;;
24030;SDS011;12240;51.142;22.486;2023-06-22T07:52:43;15.15;;;11.75;;
24030;SDS011;12240;51.142;22.486;2023-06-22T07:55:11;16.45;;;12.20;;
24030;SDS011;12240;51.142;22.486;2023-06-22T07:57:39;16.70;;;12.45;;
24030;SDS011;12240;51.142;22.486;2023-06-22T08:00:09;15.35;;;11.50;;
24030;SDS011;12240;51.142;22.486;2023-06-22T08:02:44;13.70;;;11.73;;
24030;SDS011;12240;51.142;22.486;2023-06-22T08:07:45;16.23;;;12.52;;
24030;SDS011;12240;51.142;22.486;2023-06-22T08:10:14;16.75;;;12.48;;
24030;SDS011;12240;51.142;22.486;2023-06-22T08:12:43;14.60;;;12.55;;
24030;SDS011;12240;51.142;22.486;2023-06-22T08:15:11;16.02;;;12.30;;
24030;SDS011;12240;51.142;22.486;2023-06-22T08:17:40;19.63;;;13.48;;
24030;SDS011;12240;51.142;22.486;2023-06-22T08:20:08;14.15;;;11.98;;
24030;SDS011;12240;51.142;22.486;2023-06-22T08:22:39;18.48;;;12.45;;
24030;SDS011;12240;51.142;22.486;2023-06-22T08:25:09;13.98;;;12.20;;
24030;SDS011;12240;51.142;22.486;2023-06-22T08:27:38;16.55;;;11.68;;
24030;SDS011;12240;51.142;22.486;2023-06-22T08:30:06;15.60;;;12.10;;
24030;SDS011;12240;51.142;22.486;2023-06-22T08:32:38;12.63;;;11.18;;
24030;SDS011;12240;51.142;22.486;2023-06-22T08:35:06;14.77;;;12.10;;
24030;SDS011;12240;51.142;22.486;2023-06-22T08:37:38;15.68;;;13.05;;
24030;SDS011;12240;51.142;22.486;2023-06-22T08:40:07;18.08;;;13.35;;
24030;SDS011;12240;51.142;22.486;2023-06-22T08:42:39;23.30;;;12.90;;
24030;SDS011;12240;51.142;22.486;2023-06-22T08:45:10;15.93;;;12.13;;
24030;SDS011;12240;51.142;22.486;2023-06-22T08:47:39;18.65;;;13.02;;
24030;SDS011;12240;51.142;22.486;2023-06-22T08:50:11;14.35;;;12.45;;
24030;SDS011;12240;51.142;22.486;2023-06-22T08:52:40;15.57;;;13.02;;
24030;SDS011;12240;51.142;22.486;2023-06-22T08:55:09;14.75;;;11.85;;
24030;SDS011;12240;51.142;22.486;2023-06-22T08:57:38;15.73;;;12.50;;
24030;SDS011;12240;51.142;22.486;2023-06-22T09:00:08;15.25;;;11.93;;
24030;SDS011;12240;51.142;22.486;2023-06-22T09:02:46;13.07;;;11.70;;
24030;SDS011;12240;51.142;22.486;2023-06-22T09:05:15;15.45;;;12.30;;
24030;SDS011;12240;51.142;22.486;2023-06-22T09:07:43;14.93;;;12.43;;
24030;SDS011;12240;51.142;22.486;2023-06-22T09:10:11;13.45;;;12.05;;
24030;SDS011;12240;51.142;22.486;2023-06-22T09:12:40;18.85;;;12.68;;
24030;SDS011;12240;51.142;22.486;2023-06-22T09:15:09;14.05;;;12.15;;
24030;SDS011;12240;51.142;22.486;2023-06-22T09:17:54;16.73;;;13.00;;
24030;SDS011;12240;51.142;22.486;2023-06-22T09:20:25;15.55;;;12.20;;
24030;SDS011;12240;51.142;22.486;2023-06-22T09:22:54;15.20;;;11.68;;
24030;SDS011;12240;51.142;22.486;2023-06-22T09:25:22;15.95;;;12.15;;
24030;SDS011;12240;51.142;22.486;2023-06-22T09:27:51;19.48;;;12.10;;
24030;SDS011;12240;51.142;22.486;2023-06-22T09:30:19;15.88;;;11.98;;
24030;SDS011;12240;51.142;22.486;2023-06-22T09:32:49;16.83;;;13.25;;
24030;SDS011;12240;51.142;22.486;2023-06-22T09:35:18;17.80;;;13.40;;
24030;SDS011;12240;51.142;22.486;2023-06-22T09:37:47;18.67;;;13.55;;
24030;SDS011;12240;51.142;22.486;2023-06-22T09:40:15;19.15;;;12.88;;
24030;SDS011;12240;51.142;22.486;2023-06-22T09:42:44;17.30;;;13.85;;
24030;SDS011;12240;51.142;22.486;2023-06-22T09:45:13;18.58;;;14.00;;
24030;SDS011;12240;51.142;22.486;2023-06-22T09:47:41;16.48;;;13.02;;
24030;SDS011;12240;51.142;22.486;2023-06-22T09:50:10;17.40;;;13.88;;
24030;SDS011;12240;51.142;22.486;2023-06-22T09:52:38;16.70;;;13.48;;
24030;SDS011;12240;51.142;22.486;2023-06-22T09:55:14;21.58;;;14.07;;
24030;SDS011;12240;51.142;22.486;2023-06-22T09:57:43;17.10;;;13.07;;
24030;SDS011;12240;51.142;22.486;2023-06-22T10:00:13;18.08;;;13.70;;
24030;SDS011;12240;51.142;22.486;2023-06-22T10:02:44;19.85;;;14.00;;
24030;SDS011;12240;51.142;22.486;2023-06-22T10:05:14;15.93;;;12.30;;
24030;SDS011;12240;51.142;22.486;2023-06-22T10:07:43;19.63;;;12.82;;
24030;SDS011;12240;51.142;22.486;2023-06-22T10:10:12;19.33;;;12.38;;
24030;SDS011;12240;51.142;22.486;2023-06-22T10:13:03;18.00;;;13.13;;
24030;SDS011;12240;51.142;22.486;2023-06-22T10:15:38;16.77;;;13.63;;
24030;SDS011;12240;51.142;22.486;2023-06-22T10:18:06;20.65;;;14.35;;
24030;SDS011;12240;51.142;22.486;2023-06-22T10:20:34;20.20;;;15.23;;
24030;SDS011;12240;51.142;22.486;2023-06-22T10:23:03;17.63;;;13.38;;
24030;SDS011;12240;51.142;22.486;2023-06-22T10:25:31;19.90;;;13.80;;
24030;SDS011;12240;51.142;22.486;2023-06-22T10:27:59;21.80;;;15.05;;
24030;SDS011;12240;51.142;22.486;2023-06-22T10:30:27;19.50;;;15.65;;
24030;SDS011;12240;51.142;22.486;2023-06-22T10:32:57;19.08;;;14.10;;
24030;SDS011;12240;51.142;22.486;2023-06-22T10:35:25;19.65;;;15.15;;
24030;SDS011;12240;51.142;22.486;2023-06-22T10:37:54;23.23;;;15.55;;
24030;SDS011;12240;51.142;22.486;2023-06-22T10:40:23;16.38;;;13.60;;
24030;SDS011;12240;51.142;22.486;2023-06-22T10:42:51;18.90;;;13.52;;
24030;SDS011;12240;51.142;22.486;2023-06-22T10:45:19;20.50;;;15.10;;
24030;SDS011;12240;51.142;22.486;2023-06-22T10:47:47;16.98;;;13.27;;
24030;SDS011;12240;51.142;22.486;2023-06-22T10:50:16;15.93;;;13.07;;
24030;SDS011;12240;51.142;22.486;2023-06-22T10:52:45;18.05;;;13.45;;
24030;SDS011;12240;51.142;22.486;2023-06-22T10:55:13;19.05;;;13.65;;
24030;SDS011;12240;51.142;22.486;2023-06-22T10:57:41;18.58;;;12.38;;
24030;SDS011;12240;51.142;22.486;2023-06-22T11:00:11;17.63;;;13.18;;
24030;SDS011;12240;51.142;22.486;2023-06-22T11:02:41;19.10;;;13.60;;
24030;SDS011;12240;51.142;22.486;2023-06-22T11:05:10;16.73;;;11.98;;
24030;SDS011;12240;51.142;22.486;2023-06-22T11:07:42;16.25;;;11.02;;
24030;SDS011;12240;51.142;22.486;2023-06-22T11:10:13;14.60;;;11.73;;
24030;SDS011;12240;51.142;22.486;2023-06-22T11:12:41;15.82;;;11.75;;
24030;SDS011;12240;51.142;22.486;2023-06-22T11:15:09;14.80;;;11.70;;
24030;SDS011;12240;51.142;22.486;2023-06-22T11:17:38;16.30;;;11.85;;
24030;SDS011;12240;51.142;22.486;2023-06-22T11:20:06;15.88;;;11.75;;
24030;SDS011;12240;51.142;22.486;2023-06-22T11:22:38;16.75;;;12.93;;
24030;SDS011;12240;51.142;22.486;2023-06-22T11:25:11;14.90;;;11.38;;
24030;SDS011;12240;51.142;22.486;2023-06-22T11:27:40;17.15;;;12.32;;
24030;SDS011;12240;51.142;22.486;2023-06-22T11:30:08;15.25;;;11.88;;
24030;SDS011;12240;51.142;22.486;2023-06-22T11:32:37;14.75;;;11.88;;
24030;SDS011;12240;51.142;22.486;2023-06-22T11:35:05;13.75;;;10.45;;
24030;SDS011;12240;51.142;22.486;2023-06-22T11:37:34;15.82;;;11.07;;
24030;SDS011;12240;51.142;22.486;2023-06-22T11:40:02;15.63;;;10.32;;
24030;SDS011;12240;51.142;22.486;2023-06-22T11:42:34;16.05;;;10.60;;
24030;SDS011;12240;51.142;22.486;2023-06-22T11:45:04;14.20;;;11.18;;
24030;SDS011;12240;51.142;22.486;2023-06-22T11:47:34;14.20;;;10.77;;
24030;SDS011;12240;51.142;22.486;2023-06-22T11:50:03;14.80;;;11.32;;
24030;SDS011;12240;51.142;22.486;2023-06-22T11:52:33;13.43;;;10.60;;
24030;SDS011;12240;51.142;22.486;2023-06-22T11:55:03;12.63;;;10.53;;
24030;SDS011;12240;51.142;22.486;2023-06-22T11:57:35;12.27;;;10.57;;
24030;SDS011;12240;51.142;22.486;2023-06-22T12:00:05;15.48;;;9.65;;
24030;SDS011;12240;51.142;22.486;2023-06-22T12:02:42;12.82;;;9.80;;
24030;SDS011;12240;51.142;22.486;2023-06-22T12:05:12;11.25;;;9.40;;
24030;SDS011;12240;51.142;22.486;2023-06-22T12:07:41;13.43;;;9.48;;
24030;SDS011;12240;51.142;22.486;2023-06-22T12:10:09;10.85;;;8.80;;
24030;SDS011;12240;51.142;22.486;2023-06-22T12:12:37;11.57;;;9.35;;
24030;SDS011;12240;51.142;22.486;2023-06-22T12:15:06;13.10;;;8.88;;
24030;SDS011;12240;51.142;22.486;2023-06-22T12:17:35;10.35;;;8.88;;
24030;SDS011;12240;51.142;22.486;2023-06-22T12:20:04;14.32;;;9.60;;
24030;SDS011;12240;51.142;22.486;2023-06-22T12:22:34;10.63;;;8.38;;
24030;SDS011;12240;51.142;22.486;2023-06-22T12:25:05;13.45;;;8.82;;
24030;SDS011;12240;51.142;22.486;2023-06-22T12:27:35;14.45;;;9.00;;
24030;SDS011;12240;51.142;22.486;2023-06-22T12:30:04;12.20;;;8.88;;
24030;SDS011;12240;51.142;22.486;2023-06-22T12:32:33;12.82;;;9.02;;
24030;SDS011;12240;51.142;22.486;2023-06-22T12:35:01;16.08;;;9.50;;
24030;SDS011;12240;51.142;22.486;2023-06-22T12:37:30;9.25;;;7.25;;
24030;SDS011;12240;51.142;22.486;2023-06-22T12:39:59;10.13;;;7.70;;
24030;SDS011;12240;51.142;22.486;2023-06-22T12:42:28;13.32;;;8.10;;
24030;SDS011;12240;51.142;22.486;2023-06-22T12:44:56;9.45;;;8.18;;
24030;SDS011;12240;51.142;22.486;2023-06-22T12:47:24;8.35;;;6.55;;
24030;SDS011;12240;51.142;22.486;2023-06-22T12:49:53;10.88;;;7.60;;
24030;SDS011;12240;51.142;22.486;2023-06-22T12:52:21;10.55;;;7.03;;
24030;SDS011;12240;51.142;22.486;2023-06-22T12:54:49;12.20;;;7.25;;
24030;SDS011;12240;51.142;22.486;2023-06-22T12:57:22;10.85;;;8.00;;
24030;SDS011;12240;51.142;22.486;2023-06-22T12:59:50;12.32;;;8.02;;
24030;SDS011;12240;51.142;22.486;2023-06-22T13:02:18;8.93;;;7.47;;
24030;SDS011;12240;51.142;22.486;2023-06-22T13:04:47;8.80;;;6.85;;
24030;SDS011;12240;51.142;22.486;2023-06-22T13:07:15;10.55;;;6.72;;
24030;SDS011;12240;51.142;22.486;2023-06-22T13:09:49;14.13;;;6.82;;
24030;SDS011;12240;51.142;22.486;2023-06-22T13:12:20;14.57;;;6.90;;
24030;SDS011;12240;51.142;22.486;2023-06-22T13:14:48;10.93;;;6.82;;
24030;SDS011;12240;51.142;22.486;2023-06-22T13:17:16;9.45;;;6.72;;
24030;SDS011;12240;51.142;22.486;2023-06-22T13:19:44;8.90;;;6.20;;
24030;SDS011;12240;51.142;22.486;2023-06-22T13:22:32;10.80;;;6.50;;
24030;SDS011;12240;51.142;22.486;2023-06-22T13:25:07;9.75;;;6.68;;
24030;SDS011;12240;51.142;22.486;2023-06-22T13:27:40;8.93;;;6.05;;
24030;SDS011;12240;51.142;22.486;2023-06-22T13:30:09;8.07;;;6.72;;
24030;SDS011;12240;51.142;22.486;2023-06-22T13:32:41;10.40;;;6.65;;
24030;SDS011;12240;51.142;22.486;2023-06-22T13:35:10;9.50;;;6.75;;
24030;SDS011;12240;51.142;22.486;2023-06-22T13:37:39;7.93;;;6.45;;
24030;SDS011;12240;51.142;22.486;2023-06-22T13:40:07;8.70;;;6.57;;
24030;SDS011;12240;51.142;22.486;2023-06-22T13:42:36;10.27;;;6.30;;
24030;SDS011;12240;51.142;22.486;2023-06-22T13:45:04;9.07;;;6.32;;
24030;SDS011;12240;51.142;22.486;2023-06-22T13:47:34;8.57;;;6.50;;
24030;SDS011;12240;51.142;22.486;2023-06-22T13:50:02;8.30;;;6.90;;
24030;SDS011;12240;51.142;22.486;2023-06-22T13:52:31;8.85;;;6.70;;
24030;SDS011;12240;51.142;22.486;2023-06-22T13:54:59;10.07;;;7.03;;
24030;SDS011;12240;51.142;22.486;2023-06-22T13:57:27;8.13;;;6.88;;
24030;SDS011;12240;51.142;22.486;2023-06-22T13:59:55;7.57;;;5.88;;
24030;SDS011;12240;51.142;22.486;2023-06-22T14:02:23;8.95;;;6.55;;
24030;SDS011;12240;51.142;22.486;2023-06-22T14:04:53;13.38;;;6.57;;
24030;SDS011;12240;51.142;22.486;2023-06-22T14:07:21;7.78;;;5.55;;
24030;SDS011;12240;51.142;22.486;2023-06-22T14:09:51;9.43;;;6.55;;
24030;SDS011;12240;51.142;22.486;2023-06-22T14:12:19;6.68;;;4.95;;
24030;SDS011;12240;51.142;22.486;2023-06-22T14:14:47;7.15;;;5.32;;
24030;SDS011;12240;51.142;22.486;2023-06-22T14:17:15;6.93;;;5.45;;
24030;SDS011;12240;51.142;22.486;2023-06-22T14:19:43;8.48;;;5.60;;
24030;SDS011;12240;51.142;22.486;2023-06-22T14:22:11;7.90;;;6.07;;
24030;SDS011;12240;51.142;22.486;2023-06-22T14:24:39;9.32;;;5.60;;
24030;SDS011;12240;51.142;22.486;2023-06-22T14:27:08;9.57;;;5.75;;
24030;SDS011;12240;51.142;22.486;2023-06-22T14:29:37;6.43;;;5.43;;
24030;SDS011;12240;51.142;22.486;2023-06-22T14:32:06;6.28;;;5.32;;
24030;SDS011;12240;51.142;22.486;2023-06-22T14:34:35;7.68;;;5.63;;
24030;SDS011;12240;51.142;22.486;2023-06-22T14:37:07;8.00;;;5.13;;
24030;SDS011;12240;51.142;22.486;2023-06-22T14:39:38;8.98;;;5.20;;
24030;SDS011;12240;51.142;22.486;2023-06-22T14:42:06;6.90;;;5.03;;
24030;SDS011;12240;51.142;22.486;2023-06-22T14:44:36;6.45;;;4.85;;